Sea Commander — VGGC — position and weather

sailwx.info

Track history (hours):
 
Tides and Currents Weather Stations Pressure Air Temp Water Temp Dewpoint Dewpoint Depression Visibility Wind Speed Wind Dir Waves Ship Positions

Sea Commander

Last reported at 2014-Nov-18 11:30 UTC. Time now 2014-Nov-22 16:49 UTC.
Position N 51°37' W 127°54'.

Length 44 m; draft 7 m.

Type: Tug. MMSI: 316001043.

Date/timePositionNaut miles runAvg speedWind from/ knotsBaromVisibWave heightAir tempDewpointWater temp
2014-Nov-18 11:30N 51°37' W 127°54'8 8.9
2014-Nov-18 10:33N 51°28' W 127°51'14 9.3
2014-Nov-18 09:04N 51°15' W 127°52'5 9.8
2014-Nov-18 08:33N 51°10' W 127°51'1010.5
2014-Nov-18 07:34N 51°02' W 127°40'10 9.6
2014-Nov-18 06:34N 50°56' W 127°27'1010.0
2014-Nov-18 05:33N 50°48' W 127°19'1010.1
2014-Nov-18 04:33N 50°39' W 127°12'1010.0
2014-Nov-18 03:32N 50°35' W 126°57'1210.8
2014-Nov-18 02:26N 50°31' W 126°39'1011.3
2014-Nov-18 01:33N 50°30' W 126°24'104 7.8
2014-Nov-17 12:09N 49°33' W 124°08'7 9.7
2014-Nov-17 11:28N 49°28' W 124°03'9 9.8
2014-Nov-17 10:32N 49°25' W 123°50'1110.2
2014-Nov-17 09:28N 49°22' W 123°33'5 5.8
2014-Nov-17 08:33N 49°26' W 123°27'3 0.9
2014-Nov-17 05:28N 49°28' W 123°29'0 0.0
2014-Nov-17 04:32N 49°28' W 123°29'0 0.0
2014-Nov-15 02:16N 49°28' W 123°29'7 8.8
2014-Nov-15 01:31N 49°22' W 123°26'1010.2
2014-Nov-15 00:33N 49°12' W 123°23'8 8.3
2014-Nov-14 23:33N 49°08' W 123°13'1111.2
2014-Nov-14 22:33N 49°10' W 122°56'2 0.2
2014-Nov-14 10:32N 49°12' W 122°55'6 6.0
2014-Nov-14 09:33N 49°09' W 123°02'7 6.6
2014-Nov-14 08:33N 49°07' W 123°12'7 6.6
2014-Nov-14 07:33N 49°09' W 123°22'1111.4
2014-Nov-14 06:33N 49°20' W 123°26'8 0.6
2014-Nov-13 17:27N 49°28' W 123°29'0 0.0
2014-Nov-13 16:27N 49°28' W 123°29'0 0.0
2014-Nov-13 15:32N 49°28' W 123°29'0 0.1
2014-Nov-13 13:32N 49°28' W 123°29'0 0.4
2014-Nov-13 12:33N 49°28' W 123°28'3 3.2
2014-Nov-13 11:33N 49°25' W 123°27'3 2.4
2014-Nov-13 10:29N 49°23' W 123°28'4 4.1
2014-Nov-13 09:33N 49°22' W 123°34'5 4.5
2014-Nov-13 08:33N 49°24' W 123°40'4 4.2
2014-Nov-13 07:32N 49°24' W 123°47'4 4.0
2014-Nov-13 06:26N 49°25' W 123°54'3 3.8
2014-Nov-13 05:33N 49°26' W 123°58'14 4.2
2014-Nov-13 02:16N 49°32' W 124°18'4 5.4
2014-Nov-13 01:29N 49°34' W 124°23'11 5.1
2014-Nov-12 23:22N 49°40' W 124°37'101 5.1
2014-Nov-12 03:25N 50°37' W 126°47'5 4.9
2014-Nov-12 02:24N 50°41' W 126°52'9 4.8
2014-Nov-12 00:33N 50°46' W 127°03'5 4.6
2014-Nov-11 23:33N 50°49' W 127°10'5 4.6
2014-Nov-11 22:33N 50°51' W 127°16'5 5.3
2014-Nov-11 21:33N 50°54' W 127°23'6 5.7
2014-Nov-11 20:33N 50°58' W 127°30'6 5.8
2014-Nov-11 19:33N 51°01' W 127°37'6 5.9
2014-Nov-11 18:33N 51°05' W 127°44'6 5.9
2014-Nov-11 17:32N 51°10' W 127°51'6 6.3
2014-Nov-11 16:33N 51°16' W 127°52'9 6.5
2014-Nov-11 15:09N 51°25' W 127°52'4 7.4
2014-Nov-11 14:33N 51°29' W 127°51'  
Track history (hours):
 
Tides and Currents Weather Stations Pressure Air Temp Water Temp Dewpoint Dewpoint Depression Visibility Wind Speed Wind Dir Waves Ship Positions

Sea Commander

Last reported at 2014-Nov-18 11:30 UTC. Time now 2014-Nov-22 16:49 UTC.
Position N 51°37' W 127°54'.

Length 44 m; draft 7 m.

Type: Tug. MMSI: 316001043.

Date/timePositionNaut miles runAvg speedWind from/ knotsBaromVisibWave heightAir tempDewpointWater temp
2014-Nov-18 11:30N 51°37' W 127°54'8 8.9
2014-Nov-18 10:33N 51°28' W 127°51'14 9.3
2014-Nov-18 09:04N 51°15' W 127°52'5 9.8
2014-Nov-18 08:33N 51°10' W 127°51'1010.5
2014-Nov-18 07:34N 51°02' W 127°40'10 9.6
2014-Nov-18 06:34N 50°56' W 127°27'1010.0
2014-Nov-18 05:33N 50°48' W 127°19'1010.1
2014-Nov-18 04:33N 50°39' W 127°12'1010.0
2014-Nov-18 03:32N 50°35' W 126°57'1210.8
2014-Nov-18 02:26N 50°31' W 126°39'1011.3
2014-Nov-18 01:33N 50°30' W 126°24'104 7.8
2014-Nov-17 12:09N 49°33' W 124°08'7 9.7
2014-Nov-17 11:28N 49°28' W 124°03'9 9.8
2014-Nov-17 10:32N 49°25' W 123°50'1110.2
2014-Nov-17 09:28N 49°22' W 123°33'5 5.8
2014-Nov-17 08:33N 49°26' W 123°27'3 0.9
2014-Nov-17 05:28N 49°28' W 123°29'0 0.0
2014-Nov-17 04:32N 49°28' W 123°29'0 0.0
2014-Nov-15 02:16N 49°28' W 123°29'7 8.8
2014-Nov-15 01:31N 49°22' W 123°26'1010.2
2014-Nov-15 00:33N 49°12' W 123°23'8 8.3
2014-Nov-14 23:33N 49°08' W 123°13'1111.2
2014-Nov-14 22:33N 49°10' W 122°56'2 0.2
2014-Nov-14 10:32N 49°12' W 122°55'6 6.0
2014-Nov-14 09:33N 49°09' W 123°02'7 6.6
2014-Nov-14 08:33N 49°07' W 123°12'7 6.6
2014-Nov-14 07:33N 49°09' W 123°22'1111.4
2014-Nov-14 06:33N 49°20' W 123°26'8 0.6
2014-Nov-13 17:27N 49°28' W 123°29'0 0.0
2014-Nov-13 16:27N 49°28' W 123°29'0 0.0
2014-Nov-13 15:32N 49°28' W 123°29'0 0.1
2014-Nov-13 13:32N 49°28' W 123°29'0 0.4
2014-Nov-13 12:33N 49°28' W 123°28'3 3.2
2014-Nov-13 11:33N 49°25' W 123°27'3 2.4
2014-Nov-13 10:29N 49°23' W 123°28'4 4.1
2014-Nov-13 09:33N 49°22' W 123°34'5 4.5
2014-Nov-13 08:33N 49°24' W 123°40'4 4.2
2014-Nov-13 07:32N 49°24' W 123°47'4 4.0
2014-Nov-13 06:26N 49°25' W 123°54'3 3.8
2014-Nov-13 05:33N 49°26' W 123°58'14 4.2
2014-Nov-13 02:16N 49°32' W 124°18'4 5.4
2014-Nov-13 01:29N 49°34' W 124°23'11 5.1
2014-Nov-12 23:22N 49°40' W 124°37'101 5.1
2014-Nov-12 03:25N 50°37' W 126°47'5 4.9
2014-Nov-12 02:24N 50°41' W 126°52'9 4.8
2014-Nov-12 00:33N 50°46' W 127°03'5 4.6
2014-Nov-11 23:33N 50°49' W 127°10'5 4.6
2014-Nov-11 22:33N 50°51' W 127°16'5 5.3
2014-Nov-11 21:33N 50°54' W 127°23'6 5.7
2014-Nov-11 20:33N 50°58' W 127°30'6 5.8
2014-Nov-11 19:33N 51°01' W 127°37'6 5.9
2014-Nov-11 18:33N 51°05' W 127°44'6 5.9
2014-Nov-11 17:32N 51°10' W 127°51'6 6.3
2014-Nov-11 16:33N 51°16' W 127°52'9 6.5
2014-Nov-11 15:09N 51°25' W 127°52'4 7.4
2014-Nov-11 14:33N 51°29' W 127°51'  

Dump ship's entire track history